Terminal Aerodrome Forecast
Issued by NWS

Home | Current Version | Previous Version | Graphics & Text | Print | Product List | Glossary On
Versions: 1 2 3 4 5 6 7 8 9 10 11 12 13 14 15 16 17 18 19 20 21 22 23 24 25 26 27 28 29 30
000
FTUS43 KGRB 220300 AAB
TAFAUW
TAF AMD
KAUW 220335Z 2204/2224 19011G15KT P6SM BKN015 OVC120 WS015/22045KT
     FM220700 21011KT P6SM SCT005 OVC010 WS015/23040KT
      TEMPO 2207/2211 4SM -FZDZ BR BKN005
     FM221100 21009KT 5SM -FZDZ BR OVC005
     FM221600 22008KT 5SM -FZDZ BR OVC007
     FM221700 21009KT 5SM -DZ BR OVC009=

USA.gov is the U.S. government's official web portal to all federal, state and local government web resources and services.